Time;durP1;ratioP1;P1;durP2;ratioP2;P2;SDS_P1;SDS_P2;PMS_P1;PMS_P2;Temp;Humidity;BMP_temperature;BMP_pressure;BME280_temperature;BME280_humidity;BME280_pressure;Samples;Min_cycle;Max_cycle;Signal;HPM_P1;HPM_P2
2022/08/03 00:02:23;;;;;;;10.80;3.17;;;;;;;21.23;100.00;101343.16;5089391;28;20027;-74
2022/08/03 00:04:49;;;;;;;11.93;3.10;;;;;;;21.20;100.00;101350.03;5075223;28;20075;-75
2022/08/03 00:07:14;;;;;;;10.63;3.33;;;;;;;21.17;100.00;101349.78;5072734;28;20024;-75
2022/08/03 00:09:40;;;;;;;11.88;3.03;;;;;;;21.15;100.00;101338.22;5075959;28;20035;-74
2022/08/03 00:12:05;;;;;;;8.90;3.03;;;;;;;21.11;100.00;101340.72;5092938;28;20367;-76
2022/08/03 00:14:31;;;;;;;9.70;3.50;;;;;;;21.11;100.00;101339.91;5092715;28;20034;-75
2022/08/03 00:16:56;;;;;;;8.32;2.90;;;;;;;21.01;100.00;101338.84;5091705;28;20162;-77
2022/08/03 00:19:22;;;;;;;11.48;3.17;;;;;;;20.97;100.00;101345.19;5088121;28;20063;-76
2022/08/03 00:21:47;;;;;;;14.85;3.33;;;;;;;20.99;100.00;101341.06;5092483;28;20467;-75
2022/08/03 00:24:13;;;;;;;10.10;3.17;;;;;;;20.94;100.00;101343.88;5092417;28;20031;-74
2022/08/03 00:26:38;;;;;;;9.68;3.20;;;;;;;20.85;100.00;101337.31;5086681;28;20040;-74
2022/08/03 00:29:03;;;;;;;9.18;3.28;;;;;;;20.88;100.00;101337.56;5072579;28;20481;-75
2022/08/03 00:31:29;;;;;;;14.10;3.47;;;;;;;20.87;100.00;101330.41;5072583;28;20057;-75
2022/08/03 00:33:56;;;;;;;11.30;3.20;;;;;;;20.76;100.00;101336.22;5072183;28;20021;-77
2022/08/03 00:36:21;;;;;;;11.63;3.15;;;;;;;20.76;100.00;101339.81;5072459;28;20099;-75
2022/08/03 00:38:47;;;;;;;11.60;3.28;;;;;;;20.74;100.00;101331.00;5073482;28;20025;-74
2022/08/03 00:41:12;;;;;;;15.82;3.47;;;;;;;20.70;100.00;101328.00;5090541;28;20084;-77
2022/08/03 00:43:37;;;;;;;9.98;3.15;;;;;;;20.64;100.00;101334.59;5095426;28;20050;-75
2022/08/03 00:46:03;;;;;;;9.95;3.60;;;;;;;20.70;100.00;101329.94;5095105;28;20023;-77
2022/08/03 00:48:28;;;;;;;11.07;3.40;;;;;;;20.69;100.00;101328.28;5095058;28;20468;-75
2022/08/03 00:50:54;;;;;;;8.43;3.42;;;;;;;20.66;100.00;101323.34;5100506;28;20030;-77
2022/08/03 00:53:20;;;;;;;10.43;3.05;;;;;;;20.63;100.00;101319.22;5094636;28;20102;-77
2022/08/03 00:55:45;;;;;;;12.90;3.33;;;;;;;20.65;100.00;101319.78;5095003;28;20508;-75
2022/08/03 00:58:11;;;;;;;12.23;3.38;;;;;;;20.58;100.00;101313.75;5094614;28;20028;-78
2022/08/03 01:00:39;;;;;;;11.80;3.00;;;;;;;20.56;100.00;101321.44;5087793;28;20474;-76
2022/08/03 01:03:07;;;;;;;11.18;3.22;;;;;;;20.55;100.00;101322.56;5094915;28;20035;-76
2022/08/03 01:05:44;;;;;;;18.38;3.72;;;;;;;20.50;100.00;101320.66;5094799;28;20016;-76
2022/08/03 01:08:26;;;;;;;13.05;3.22;;;;;;;20.49;100.00;101318.19;5094548;28;20020;-74
2022/08/03 01:11:10;;;;;;;13.15;3.00;;;;;;;20.47;100.00;101307.47;5093995;28;20095;-77
2022/08/03 01:14:03;;;;;;;10.45;3.58;;;;;;;20.49;100.00;101315.44;5092896;28;20103;-77
2022/08/03 01:16:54;;;;;;;13.07;3.80;;;;;;;20.49;100.00;101312.69;5090909;28;20047;-75
2022/08/03 01:19:48;;;;;;;11.75;3.05;;;;;;;20.43;100.00;101313.81;5073698;28;20028;-74
2022/08/03 01:22:51;;;;;;;11.93;3.30;;;;;;;20.46;100.00;101308.56;5074097;28;20020;-75
2022/08/03 01:25:54;;;;;;;10.88;3.15;;;;;;;20.41;100.00;101307.75;5073992;28;20070;-74
2022/08/03 01:28:34;;;;;;;12.73;3.50;;;;;;;20.41;100.00;101307.75;5073771;28;20028;-73
2022/08/03 01:31:04;;;;;;;10.03;3.20;;;;;;;20.39;100.00;101308.03;5088627;28;20032;-74
2022/08/03 01:33:39;;;;;;;13.20;3.70;;;;;;;20.38;100.00;101306.38;5075343;28;20029;-76
2022/08/03 01:36:08;;;;;;;14.10;3.65;;;;;;;20.36;100.00;101305.84;5073785;28;20020;-73
2022/08/03 01:38:57;;;;;;;12.68;3.38;;;;;;;20.43;100.00;101303.63;5073863;28;20020;-75
2022/08/03 01:41:30;;;;;;;11.48;3.33;;;;;;;20.31;100.00;101301.19;5085847;28;20115;-76
2022/08/03 01:43:57;;;;;;;12.23;3.33;;;;;;;20.29;100.00;101297.06;5080050;28;20020;-76
2022/08/03 01:46:25;;;;;;;12.40;3.00;;;;;;;20.31;100.00;101306.69;5093861;28;20027;-74
2022/08/03 01:48:51;;;;;;;11.70;3.08;;;;;;;20.35;100.00;101306.94;5095144;28;20066;-76
2022/08/03 01:51:19;;;;;;;11.55;3.42;;;;;;;20.26;100.00;101300.38;5077564;28;20042;-73
2022/08/03 01:53:47;;;;;;;15.23;3.50;;;;;;;20.29;100.00;101292.41;5074851;28;20020;-74
2022/08/03 01:56:15;;;;;;;11.63;3.40;;;;;;;20.30;100.00;101295.97;5076873;28;20031;-75
2022/08/03 01:58:42;;;;;;;8.65;3.22;;;;;;;20.24;100.00;101295.16;5074886;28;20024;-76
2022/08/03 02:01:09;;;;;;;14.18;3.50;;;;;;;20.21;100.00;101294.91;5088592;28;20046;-74
2022/08/03 02:03:38;;;;;;;10.90;3.40;;;;;;;20.23;100.00;101293.53;5089935;28;20024;-74
2022/08/03 02:06:05;;;;;;;16.48;3.50;;;;;;;20.24;100.00;101297.91;5093492;28;20028;-76
2022/08/03 02:08:32;;;;;;;12.50;3.65;;;;;;;20.24;100.00;101305.31;5093638;28;20052;-76
2022/08/03 02:10:58;;;;;;;14.02;4.18;;;;;;;20.25;100.00;101294.06;5094010;28;20038;-76
2022/08/03 02:13:26;;;;;;;17.83;3.95;;;;;;;20.19;100.00;101303.41;5084356;28;20036;-73
2022/08/03 02:15:52;;;;;;;13.63;3.92;;;;;;;20.16;100.00;101293.81;5074636;28;20028;-73
2022/08/03 02:18:21;;;;;;;9.85;3.50;;;;;;;20.14;100.00;101300.66;5074362;28;20470;-76
2022/08/03 02:20:48;;;;;;;15.15;3.88;;;;;;;20.12;100.00;101291.88;5088716;28;20039;-75
2022/08/03 02:23:16;;;;;;;11.40;3.10;;;;;;;20.18;100.00;101299.03;5094415;28;20028;-75
2022/08/03 02:25:45;;;;;;;12.60;3.40;;;;;;;20.15;100.00;101302.31;5094654;28;20024;-75
2022/08/03 02:31:46;;;;;;;17.05;3.67;;;;;;;20.10;100.00;101289.44;5042070;28;20074;-74
2022/08/03 02:34:20;;;;;;;15.27;3.60;;;;;;;19.98;100.00;101286.97;5072875;28;20044;-76
2022/08/03 02:36:50;;;;;;;16.70;3.58;;;;;;;19.99;100.00;101288.63;5072613;28;20028;-76
2022/08/03 02:39:19;;;;;;;14.43;3.88;;;;;;;19.95;100.00;101282.03;5074656;28;20046;-74
2022/08/03 02:41:51;;;;;;;11.40;3.90;;;;;;;19.94;100.00;101285.91;5092776;28;20044;-75
2022/08/03 02:44:20;;;;;;;12.68;3.45;;;;;;;19.95;100.00;101282.03;5088687;28;20114;-74
2022/08/03 02:46:48;;;;;;;16.90;3.42;;;;;;;19.89;100.00;101283.16;5092901;28;20016;-75
2022/08/03 02:49:17;;;;;;;16.90;3.90;;;;;;;19.91;100.00;101285.63;5091753;28;20023;-75
2022/08/03 02:51:46;;;;;;;11.15;3.90;;;;;;;19.91;100.00;101280.94;5092781;28;20157;-75
2022/08/03 02:54:16;;;;;;;13.50;4.35;;;;;;;19.92;100.00;101288.09;5092502;28;20020;-75
2022/08/03 02:56:44;;;;;;;12.60;4.25;;;;;;;19.95;100.00;101273.78;5093922;28;20110;-75
2022/08/03 02:59:11;;;;;;;16.25;4.40;;;;;;;19.97;100.00;101277.09;5087526;28;20387;-75
2022/08/03 03:01:37;;;;;;;17.85;4.97;;;;;;;19.96;100.00;101282.88;5078394;28;20028;-75
2022/08/03 03:04:04;;;;;;;15.88;4.90;;;;;;;19.95;100.00;101281.22;5092406;28;20042;-75
2022/08/03 03:06:30;;;;;;;10.73;4.45;;;;;;;19.92;100.00;101277.09;5093564;28;20023;-75
2022/08/03 03:08:56;;;;;;;10.02;4.10;;;;;;;19.93;100.00;101276.00;5093825;28;20012;-75
2022/08/03 03:11:22;;;;;;;11.20;4.18;;;;;;;19.88;100.00;101269.69;5091483;28;20023;-75
2022/08/03 03:13:49;;;;;;;12.98;4.30;;;;;;;19.82;100.00;101280.69;5093725;28;20035;-75
2022/08/03 03:16:15;;;;;;;15.82;4.45;;;;;;;19.83;100.00;101281.50;5087237;28;20054;-75
2022/08/03 03:18:43;;;;;;;11.98;3.80;;;;;;;19.80;100.00;101279.31;5091823;28;20076;-75
2022/08/03 03:21:09;;;;;;;11.15;4.32;;;;;;;19.78;100.00;101281.53;5091192;28;20024;-75
2022/08/03 03:23:37;;;;;;;10.65;4.28;;;;;;;19.73;100.00;101285.06;5093307;28;20366;-75
2022/08/03 03:26:03;;;;;;;15.40;4.20;;;;;;;19.72;100.00;101282.63;5091967;28;20461;-75
2022/08/03 03:28:30;;;;;;;14.20;4.20;;;;;;;19.67;100.00;101280.66;5090653;28;20027;-75
2022/08/03 03:30:56;;;;;;;10.15;4.07;;;;;;;19.63;100.00;101274.91;5079883;28;20101;-75
2022/08/03 03:33:22;;;;;;;11.85;4.13;;;;;;;19.63;100.00;101274.91;5091820;28;20055;-75
2022/08/03 03:35:48;;;;;;;12.88;4.13;;;;;;;19.60;100.00;101274.66;5092099;28;20355;-75
2022/08/03 03:38:13;;;;;;;14.10;4.10;;;;;;;19.58;100.00;101276.84;5092781;28;20343;-75
2022/08/03 03:40:39;;;;;;;13.27;4.32;;;;;;;19.58;100.00;101269.44;5091612;28;20111;-75
2022/08/03 03:43:10;;;;;;;13.32;4.32;;;;;;;19.54;100.00;101271.06;5093241;28;20094;-75
2022/08/03 03:45:36;;;;;;;12.47;4.10;;;;;;;19.55;100.00;101272.72;5077197;28;20036;-75
2022/08/03 03:48:03;;;;;;;13.80;4.07;;;;;;;19.49;100.00;101273.84;5072795;28;20448;-75
2022/08/03 03:50:30;;;;;;;12.68;4.07;;;;;;;19.47;100.00;101268.63;5072834;28;20545;-75
2022/08/03 03:52:59;;;;;;;9.48;4.35;;;;;;;19.47;100.00;101274.13;5092721;28;20035;-75
2022/08/03 03:55:24;;;;;;;11.52;4.20;;;;;;;19.45;100.00;101267.25;5092545;28;20107;-75
2022/08/03 03:57:49;;;;;;;8.25;3.72;;;;;;;19.35;100.00;101267.22;5091571;28;20024;-75
2022/08/03 04:00:17;;;;;;;13.13;4.32;;;;;;;19.41;100.00;101271.63;5078931;28;20360;-75
2022/08/03 04:02:43;;;;;;;10.88;4.10;;;;;;;19.42;100.00;101273.28;5088566;28;20035;-75
2022/08/03 04:10:59;;;;;;;13.50;4.00;;;;;;;19.40;100.00;101267.22;5091825;28;20425;-75
2022/08/03 04:13:38;;;;;;;11.38;4.05;;;;;;;19.39;100.00;101265.59;5088985;28;20066;-75
2022/08/03 04:16:06;;;;;;;11.55;3.75;;;;;;;19.38;100.00;101269.44;5071423;28;20051;-75
2022/08/03 04:18:34;;;;;;;15.48;3.60;;;;;;;19.39;100.00;101271.09;5071734;28;20059;-75
2022/08/03 04:21:07;;;;;;;16.45;3.58;;;;;;;19.41;100.00;101268.88;5090016;28;20036;-75
2022/08/03 04:23:36;;;;;;;9.68;3.40;;;;;;;19.36;100.00;101275.19;5090657;28;20028;-75
2022/08/03 04:26:04;;;;;;;9.38;3.55;;;;;;;19.34;100.00;101271.91;5092777;28;20028;-75
2022/08/03 04:28:32;;;;;;;13.57;3.65;;;;;;;19.37;100.00;101278.75;5088923;28;20047;-75
2022/08/03 04:30:59;;;;;;;9.98;3.70;;;;;;;19.37;100.00;101281.50;5088514;28;20544;-75
2022/08/03 04:33:27;;;;;;;15.07;3.25;;;;;;;19.39;100.00;101282.06;5091163;28;20501;-75
2022/08/03 04:35:56;;;;;;;12.20;3.58;;;;;;;19.38;100.00;101270.25;5092262;28;20465;-75
2022/08/03 04:38:24;;;;;;;11.70;3.50;;;;;;;19.39;100.00;101269.16;5091067;28;20363;-75
2022/08/03 04:40:51;;;;;;;14.70;3.35;;;;;;;19.44;100.00;101277.38;5091471;28;20523;-75
2022/08/03 04:43:18;;;;;;;11.02;3.70;;;;;;;19.42;100.00;101287.81;5088104;28;20020;-75
2022/08/03 04:45:46;;;;;;;13.57;3.40;;;;;;;19.42;100.00;101284.25;5074525;28;20451;-75
2022/08/03 04:48:13;;;;;;;10.82;3.53;;;;;;;19.38;100.00;101283.16;5071985;28;20047;-74
2022/08/03 04:50:40;;;;;;;14.57;3.47;;;;;;;19.39;100.00;101282.06;5086550;28;20028;-75
2022/08/03 04:53:05;;;;;;;12.20;3.38;;;;;;;19.38;100.00;101294.13;5092141;28;20106;-75
2022/08/03 04:55:33;;;;;;;10.25;3.20;;;;;;;19.39;100.00;101291.09;5091991;28;20153;-75
2022/08/03 04:57:59;;;;;;;10.23;3.33;;;;;;;19.38;100.00;101288.63;5091064;28;20510;-75
2022/08/03 05:00:25;;;;;;;11.65;3.42;;;;;;;19.40;100.00;101295.50;5086142;28;20129;-75
2022/08/03 05:02:52;;;;;;;9.90;3.83;;;;;;;19.40;100.00;101302.91;5089187;28;20032;-75
2022/08/03 05:05:18;;;;;;;9.95;2.97;;;;;;;19.40;100.00;101300.16;5090885;28;20020;-74
2022/08/03 05:07:43;;;;;;;7.70;3.50;;;;;;;19.40;100.00;101303.75;5092415;28;20028;-75
2022/08/03 05:10:09;;;;;;;12.23;3.47;;;;;;;19.39;100.00;101301.28;5090976;28;20371;-75
2022/08/03 05:12:35;;;;;;;11.52;3.38;;;;;;;19.36;100.00;101307.31;5092049;28;20035;-75
2022/08/03 05:15:07;;;;;;;12.93;3.75;;;;;;;19.39;100.00;101312.25;5087436;28;20436;-75
2022/08/03 05:17:32;;;;;;;11.88;3.63;;;;;;;19.43;100.00;101307.84;5073151;28;20133;-74
2022/08/03 05:19:58;;;;;;;9.55;3.05;;;;;;;19.43;100.00;101316.06;5080018;28;20099;-75
2022/08/03 05:22:24;;;;;;;10.45;3.65;;;;;;;19.47;100.00;101315.28;5091781;28;20039;-75
2022/08/03 05:24:49;;;;;;;10.95;3.38;;;;;;;19.50;100.00;101310.34;5093281;28;20506;-75
2022/08/03 05:27:21;;;;;;;10.98;3.75;;;;;;;19.53;100.00;101316.09;5094268;28;20128;-75
2022/08/03 05:29:46;;;;;;;;;;;;;;;19.65;100.00;101322.13;5094871;28;20520;-75
2022/08/03 05:32:12;;;;;;;10.57;3.20;;;;;;;19.60;100.00;101307.59;5086808;28;19908;-75
2022/08/03 05:34:37;;;;;;;14.70;4.32;;;;;;;19.61;100.00;101315.56;5073840;28;20021;-75
2022/08/03 05:37:09;;;;;;;8.77;3.25;;;;;;;19.63;100.00;101318.03;5073933;28;20489;-75
2022/08/03 05:39:34;;;;;;;;;;;;;;;19.75;100.00;101318.56;5079210;28;20031;-75
2022/08/03 05:42:00;;;;;;;13.93;2.97;;;;;;;19.71;100.00;101320.22;5094796;28;19911;-75
2022/08/03 05:44:25;;;;;;;15.45;3.22;;;;;;;19.71;100.00;101324.88;5095286;28;20059;-74
2022/08/03 05:46:51;;;;;;;11.38;3.30;;;;;;;19.73;100.00;101330.91;5087634;28;20036;-75
2022/08/03 05:49:17;;;;;;;8.85;3.00;;;;;;;19.81;100.00;101330.41;5074940;28;20028;-75
2022/08/03 05:51:42;;;;;;;10.02;3.20;;;;;;;19.87;100.00;101332.06;5095116;28;20031;-74
2022/08/03 05:54:08;;;;;;;11.00;3.42;;;;;;;19.91;100.00;101335.88;5095017;28;20093;-75
2022/08/03 05:56:34;;;;;;;10.35;3.42;;;;;;;19.94;100.00;101329.84;5095058;28;20069;-74
2022/08/03 05:58:59;;;;;;;15.38;2.80;;;;;;;19.97;100.00;101321.06;5093809;28;20390;-75
2022/08/03 06:01:24;;;;;;;11.02;3.35;;;;;;;20.02;100.00;101331.22;5086977;28;20111;-74
2022/08/03 06:03:51;;;;;;;13.77;3.30;;;;;;;20.08;100.00;101330.09;5090300;28;20035;-75
2022/08/03 06:06:16;;;;;;;16.00;3.40;;;;;;;20.13;100.00;101326.53;5093512;28;20028;-75
2022/08/03 06:08:42;;;;;;;14.43;3.22;;;;;;;20.15;100.00;101325.13;5089791;28;20069;-75
2022/08/03 06:11:08;;;;;;;17.20;3.30;;;;;;;20.19;100.00;101320.72;5090896;28;20062;-76
2022/08/03 06:13:34;;;;;;;15.77;3.15;;;;;;;20.26;100.00;101325.94;5093227;28;20055;-76
2022/08/03 06:15:59;;;;;;;18.77;4.35;;;;;;;20.29;100.00;101325.38;5092977;28;20035;-76
2022/08/03 06:18:24;;;;;;;12.02;2.67;;;;;;;20.34;100.00;101328.09;5089980;28;20086;-76
2022/08/03 06:20:50;;;;;;;10.60;2.80;;;;;;;20.40;100.00;101320.69;5072694;28;20078;-76
2022/08/03 06:23:16;;;;;;;15.90;3.03;;;;;;;20.42;100.00;101325.88;5074239;28;20027;-77
2022/08/03 06:25:42;;;;;;;15.57;3.15;;;;;;;20.45;100.00;101328.06;5072815;28;20020;-78
2022/08/03 06:28:11;;;;;;;8.75;2.45;;;;;;;20.49;98.34;101323.69;5089722;28;20058;-80
2022/08/03 06:30:36;;;;;;;16.70;2.90;;;;;;;20.53;97.86;101322.00;5084389;28;20023;-80
2022/08/03 06:33:04;;;;;;;15.75;2.88;;;;;;;20.54;96.98;101329.94;5089171;28;20027;-80
2022/08/03 06:35:32;;;;;;;17.05;3.25;;;;;;;20.61;97.42;101326.91;5088222;28;20478;-82
2022/08/03 06:38:00;;;;;;;11.27;2.95;;;;;;;20.62;95.57;101320.34;5093184;28;20031;-77
2022/08/03 06:40:30;;;;;;;7.65;2.55;;;;;;;20.71;96.30;101334.31;5092823;28;20093;-79
2022/08/03 06:43:00;;;;;;;9.25;2.85;;;;;;;20.76;94.82;101327.97;5093212;28;20050;-79
2022/08/03 06:45:45;;;;;;;13.90;2.90;;;;;;;20.85;94.35;101337.31;5093999;28;20024;-78
2022/08/03 06:52:17;;;;;;;11.05;2.50;;;;;;;20.89;92.64;101333.72;4947157;29;20134;-77
2022/08/03 06:54:43;;;;;;;10.30;2.40;;;;;;;20.99;93.39;101337.50;4937186;29;20171;-77
2022/08/03 06:57:10;;;;;;;13.98;3.15;;;;;;;21.05;92.31;101328.94;5063111;28;20550;-81
2022/08/03 06:59:36;;;;;;;13.50;3.00;;;;;;;21.11;89.67;101332.47;5093067;28;20036;-78
2022/08/03 07:02:01;;;;;;;10.02;2.97;;;;;;;21.18;88.40;101337.66;5090152;28;20019;-79
2022/08/03 07:04:36;;;;;;;18.30;2.95;;;;;;;21.21;86.85;101334.34;5092224;28;20024;-77
2022/08/03 07:07:04;;;;;;;11.85;2.60;;;;;;;21.22;87.90;101338.75;5088517;28;20032;-78
2022/08/03 07:09:30;;;;;;;14.70;2.42;;;;;;;21.29;85.94;101349.41;5092814;28;20088;-82
2022/08/03 07:11:55;;;;;;;14.00;2.95;;;;;;;21.30;86.84;101338.13;5094174;28;20035;-82
2022/08/03 07:14:21;;;;;;;11.38;2.75;;;;;;;21.41;87.99;101349.91;5093590;28;20348;-75
2022/08/03 07:16:47;;;;;;;11.00;2.60;;;;;;;21.41;84.14;101341.66;5092207;28;20071;-75
2022/08/03 07:19:12;;;;;;;11.25;2.95;;;;;;;21.46;84.73;101349.03;5093491;28;20082;-79
2022/08/03 07:21:41;;;;;;;12.88;2.50;;;;;;;21.48;85.74;101349.56;5078486;28;20025;-76
2022/08/03 07:24:09;;;;;;;12.98;2.85;;;;;;;21.58;84.15;101355.03;5073173;28;20361;-77
2022/08/03 07:26:34;;;;;;;11.25;2.60;;;;;;;21.59;83.13;101354.75;5073162;28;20216;-80
2022/08/03 07:29:02;;;;;;;13.60;2.60;;;;;;;21.67;81.80;101356.06;5073227;28;20201;-80
2022/08/03 07:31:30;;;;;;;13.32;2.95;;;;;;;21.76;83.92;101364.53;5089254;28;20028;-77
2022/08/03 07:33:55;;;;;;;9.07;2.60;;;;;;;21.77;81.36;101358.75;5093432;28;20028;-75
2022/08/03 07:36:21;;;;;;;12.85;2.75;;;;;;;21.85;80.27;101362.00;5088480;28;20024;-78
2022/08/03 07:38:46;;;;;;;15.65;3.20;;;;;;;21.86;81.16;101352.59;5091994;28;20045;-77
2022/08/03 07:41:11;;;;;;;14.50;2.95;;;;;;;21.92;79.59;101359.69;5091709;28;20035;-75
2022/08/03 07:43:37;;;;;;;12.67;3.20;;;;;;;21.95;80.01;101359.97;5091695;28;20388;-75
2022/08/03 07:46:02;;;;;;;17.42;3.20;;;;;;;21.98;79.66;101358.53;5093473;28;20270;-76
2022/08/03 07:48:27;;;;;;;16.30;2.95;;;;;;;22.03;79.02;101357.69;5092398;28;20028;-75
2022/08/03 07:50:53;;;;;;;18.00;2.90;;;;;;;22.06;77.55;101357.94;5090632;28;20028;-75
2022/08/03 07:53:18;;;;;;;13.20;3.05;;;;;;;22.10;76.55;101356.25;5093388;28;20106;-75
2022/08/03 07:55:43;;;;;;;17.95;3.53;;;;;;;22.16;75.81;101361.69;5092806;28;20035;-76
2022/08/03 07:58:17;;;;;;;18.27;3.00;;;;;;;22.16;75.97;101361.69;5091607;28;20077;-78
2022/08/03 08:00:43;;;;;;;17.08;2.80;;;;;;;22.20;76.10;101357.25;5087744;28;20546;-76
2022/08/03 08:03:12;;;;;;;17.67;3.20;;;;;;;22.27;75.72;101358.53;5091359;28;20107;-77
2022/08/03 08:05:48;;;;;;;;;;;;;;;;;;;;;
2022/08/03 08:08:13;;;;;;;17.77;3.20;;;;;;;22.38;74.70;101350.19;5072547;28;20017;-77
2022/08/03 08:10:39;;;;;;;16.08;2.30;;;;;;;22.44;75.94;101351.78;5080887;28;20547;-76
2022/08/03 08:13:04;;;;;;;16.02;2.90;;;;;;;22.54;74.04;101353.59;5091338;28;20069;-77
2022/08/03 08:15:30;;;;;;;14.32;2.70;;;;;;;22.64;72.94;101353.47;5092446;28;20103;-76
2022/08/03 08:17:58;;;;;;;22.90;3.75;;;;;;;22.69;73.40;101350.66;5091085;28;20044;-76
2022/08/03 08:20:27;;;;;;;21.45;4.25;;;;;;;22.74;73.55;101352.53;5086681;28;20023;-77
2022/08/03 08:22:55;;;;;;;20.83;3.72;;;;;;;22.81;72.81;101353.81;5092770;28;20026;-78
2022/08/03 08:25:20;;;;;;;24.65;3.72;;;;;;;22.87;72.92;101350.97;5092729;28;20024;-77
2022/08/03 08:27:48;;;;;;;30.92;3.47;;;;;;;22.93;72.15;101356.16;5092436;28;20019;-77
2022/08/03 08:30:22;;;;;;;33.38;5.28;;;;;;;22.99;72.14;101354.13;5086326;28;20371;-78
2022/08/03 08:32:50;;;;;;;23.92;3.50;;;;;;;23.06;71.82;101349.06;5091057;28;20039;-77
2022/08/03 08:35:17;;;;;;;23.85;3.42;;;;;;;23.17;70.04;101356.13;5092843;28;20073;-77
2022/08/03 08:37:42;;;;;;;22.25;3.45;;;;;;;23.19;69.56;101353.06;5088565;28;20334;-76
2022/08/03 08:40:09;;;;;;;19.70;3.83;;;;;;;23.17;69.44;101339.56;5089299;28;20569;-75
2022/08/03 08:42:38;;;;;;;23.33;3.90;;;;;;;23.27;69.69;101337.75;5091482;28;20035;-74
2022/08/03 08:45:07;;;;;;;19.75;3.20;;;;;;;23.33;68.26;101347.63;5092539;28;20020;-74
2022/08/03 08:47:35;;;;;;;20.83;3.10;;;;;;;23.36;68.78;101350.59;5090855;28;20081;-74
2022/08/03 08:50:01;;;;;;;22.05;3.50;;;;;;;23.39;68.89;101346.41;5090838;28;20379;-74
2022/08/03 08:52:28;;;;;;;26.30;3.85;;;;;;;23.44;67.40;101348.28;5088701;28;20036;-75
2022/08/03 08:55:02;;;;;;;16.27;3.20;;;;;;;23.52;67.12;101345.66;5081886;28;20020;-74
2022/08/03 08:57:44;;;;;;;17.00;2.67;;;;;;;23.53;67.34;101347.28;5091848;28;20027;-75
2022/08/03 09:00:14;;;;;;;16.38;3.03;;;;;;;23.66;66.16;101344.88;5094049;28;20027;-75
2022/08/03 09:02:43;;;;;;;21.33;3.70;;;;;;;23.73;65.94;101345.28;5093599;28;20028;-75
2022/08/03 09:05:14;;;;;;;14.68;3.13;;;;;;;23.82;64.24;101351.78;5095922;28;20744;-76
2022/08/03 09:07:41;;;;;;;22.30;2.67;;;;;;;23.89;64.58;101343.13;5093552;28;20068;-77
2022/08/03 09:10:07;;;;;;;19.90;4.10;;;;;;;23.98;64.94;101341.31;5089314;28;20024;-75
2022/08/03 09:12:47;;;;;;;16.30;2.80;;;;;;;24.05;64.94;101340.91;5095140;28;20062;-80
2022/08/03 09:15:18;;;;;;;22.65;3.45;;;;;;;24.12;64.20;101357.91;5094786;28;20070;-79
2022/08/03 09:17:43;;;;;;;26.90;3.38;;;;;;;24.13;63.86;101347.69;5092891;28;20051;-79
2022/08/03 09:20:11;;;;;;;19.05;2.80;;;;;;;24.18;63.67;101347.59;5073845;28;20041;-77
2022/08/03 09:22:52;;;;;;;22.38;3.70;;;;;;;24.30;64.19;101341.56;5076713;28;20024;-74
2022/08/03 09:25:20;;;;;;;14.90;2.70;;;;;;;24.33;63.61;101346.47;5077160;28;20020;-76
2022/08/03 09:27:45;;;;;;;21.38;3.33;;;;;;;24.45;62.66;101352.31;5077653;28;20355;-78
2022/08/03 09:30:20;;;;;;;22.73;3.05;;;;;;;24.45;62.86;101352.31;5091479;28;20024;-79
2022/08/03 09:32:48;;;;;;;18.60;3.05;;;;;;;24.50;61.18;101346.66;5094169;28;20027;-74
2022/08/03 09:35:14;;;;;;;14.88;2.80;;;;;;;24.61;61.34;101352.03;5095572;28;20100;-75
2022/08/03 09:37:39;;;;;;;11.70;3.15;;;;;;;24.67;61.32;101346.09;5091267;28;20112;-71
2022/08/03 09:40:06;;;;;;;17.35;2.85;;;;;;;24.75;61.58;101353.66;5089439;28;20111;-73
2022/08/03 09:42:37;;;;;;;14.00;3.20;;;;;;;24.82;61.46;101342.19;5085183;28;20024;-73
2022/08/03 09:45:03;;;;;;;;;;;;;;;24.86;60.82;101342.38;5095099;28;20123;-73
2022/08/03 09:47:31;;;;;;;21.02;3.08;;;;;;;24.88;60.27;101346.50;5077285;28;19910;-73
2022/08/03 09:50:03;;;;;;;21.27;3.38;;;;;;;24.94;60.71;101352.72;5078718;28;20035;-75
2022/08/03 09:52:37;;;;;;;16.92;2.85;;;;;;;24.94;59.72;101348.00;5093901;28;20050;-73
2022/08/03 09:55:10;;;;;;;24.05;3.30;;;;;;;25.04;60.08;101343.38;5095011;28;20024;-73
2022/08/03 09:57:36;;;;;;;18.50;2.65;;;;;;;25.08;59.92;101344.41;5094062;28;20052;-73
2022/08/03 10:00:25;;;;;;;20.33;2.92;;;;;;;25.16;60.40;101345.59;5092742;28;20501;-75
2022/08/03 10:03:04;;;;;;;18.20;2.83;;;;;;;25.25;59.33;101344.53;5068663;28;20119;-74
2022/08/03 10:05:33;;;;;;;19.20;3.22;;;;;;;25.31;58.75;101336.16;5080318;28;20027;-77
2022/08/03 10:08:14;;;;;;;20.30;3.08;;;;;;;25.35;58.33;101349.06;5080268;28;20619;-74
2022/08/03 10:10:43;;;;;;;;;;;;;;;25.38;58.24;101347.59;5094761;28;20024;-76
2022/08/03 10:13:12;;;;;;;19.98;3.30;;;;;;;25.51;57.35;101340.38;5091153;28;19976;-74
2022/08/03 10:15:38;;;;;;;23.00;4.07;;;;;;;25.53;56.99;101344.47;5085038;28;20023;-75
2022/08/03 10:18:04;;;;;;;15.60;3.10;;;;;;;25.59;56.92;101337.66;5078611;28;20052;-74
2022/08/03 10:20:31;;;;;;;18.17;3.35;;;;;;;25.68;56.29;101339.66;5074770;28;20414;-70
2022/08/03 10:22:58;;;;;;;23.00;3.38;;;;;;;25.77;57.51;101337.78;5074460;28;20054;-71
2022/08/03 10:25:28;;;;;;;20.17;3.53;;;;;;;25.79;55.64;101335.50;5074486;28;20025;-72
2022/08/03 10:27:57;;;;;;;24.10;4.28;;;;;;;25.81;55.02;101330.47;5074940;28;20032;-72
2022/08/03 10:30:26;;;;;;;19.58;3.65;;;;;;;25.90;55.59;101330.53;5092661;28;20028;-74
2022/08/03 10:33:00;;;;;;;22.45;3.38;;;;;;;25.99;55.26;101323.91;5086152;28;20020;-72
2022/08/03 10:35:25;;;;;;;17.67;3.42;;;;;;;26.14;54.70;101327.41;5073109;28;20021;-72
2022/08/03 10:37:56;;;;;;;16.30;3.47;;;;;;;26.24;54.90;101320.75;5074471;28;20020;-72
2022/08/03 10:40:22;;;;;;;25.65;4.07;;;;;;;26.30;54.62;101314.75;5073782;28;20028;-72
2022/08/03 10:42:50;;;;;;;19.02;3.40;;;;;;;26.35;51.46;101327.66;5073657;28;20410;-73
2022/08/03 10:45:20;;;;;;;18.90;3.20;;;;;;;26.38;51.49;101318.69;5073896;28;20021;-72
2022/08/03 10:47:47;;;;;;;16.55;3.13;;;;;;;26.59;51.83;101313.38;5073869;28;20028;-72
2022/08/03 10:50:12;;;;;;;14.02;3.38;;;;;;;26.62;52.08;101309.94;5092200;28;20035;-72
2022/08/03 10:52:55;;;;;;;21.80;3.60;;;;;;;26.77;52.70;101308.69;5086706;28;20027;-72
2022/08/03 10:58:36;;;;;;;15.63;2.58;;;;;;;26.91;52.16;101304.97;5093317;28;20046;-72
2022/08/03 11:01:06;;;;;;;18.17;2.80;;;;;;;27.03;49.98;101311.50;5091570;28;20027;-71
2022/08/03 11:03:31;;;;;;;16.50;2.88;;;;;;;27.02;48.99;101303.50;5094060;28;20103;-72
2022/08/03 11:06:17;;;;;;;14.18;2.33;;;;;;;27.01;50.71;101299.91;5093770;28;20102;-72
2022/08/03 11:08:44;;;;;;;16.55;2.72;;;;;;;27.13;49.15;101293.69;5088222;28;20026;-72
2022/08/03 11:11:18;;;;;;;16.92;2.72;;;;;;;27.29;51.02;101302.34;5093861;28;20028;-72
2022/08/03 11:14:12;;;;;;;15.73;3.20;;;;;;;27.32;49.78;101296.16;5086272;28;20028;-72
2022/08/03 11:16:51;;;;;;;18.17;2.53;;;;;;;27.36;49.86;101291.56;5087641;28;20031;-72
2022/08/03 11:19:26;;;;;;;15.63;2.88;;;;;;;27.30;48.83;101292.88;5092447;28;20027;-72
2022/08/03 11:21:53;;;;;;;9.57;2.30;;;;;;;27.35;48.85;101295.50;5092919;28;20020;-72
2022/08/03 11:24:39;;;;;;;13.13;2.30;;;;;;;27.36;49.66;101290.78;5075181;28;20367;-72
2022/08/03 11:27:21;;;;;;;15.55;3.00;;;;;;;27.56;49.20;101289.25;5073259;28;20483;-73
2022/08/03 11:30:04;;;;;;;11.52;2.97;;;;;;;27.61;48.70;101294.63;5073016;28;20025;-73
2022/08/03 11:32:39;;;;;;;18.77;2.92;;;;;;;27.63;49.42;101294.28;5073870;28;20085;-72
2022/08/03 11:35:23;;;;;;;12.05;2.40;;;;;;;27.60;48.20;101293.03;5093406;28;20028;-72
2022/08/03 11:37:58;;;;;;;13.77;2.20;;;;;;;27.76;48.65;101293.28;5089572;28;20028;-73
2022/08/03 11:40:43;;;;;;;11.40;2.20;;;;;;;27.81;48.47;101297.84;5072748;28;20035;-72
2022/08/03 11:43:21;;;;;;;13.90;2.60;;;;;;;27.91;48.19;101300.28;5085754;28;20061;-72